Terminal Aerodrome Forecast
Issued by NWS

Home | Current Version | Previous Version | Text Only | Print | Product List | Glossary On
Versions: 1 2 3 4 5 6 7 8 9 10 11 12 13 14 15 16 17 18 19 20 21 22 23 24 25 26 27 28 29 30 31 32 33 34 35 36 37 38 39 40 41 42 43 44 45 46 47 48 49 50
000
FTUS42 KGSP 161132
TAFGMU
TAF
KGMU 161132Z 1612/1712 VRB03KT 4SM -SHRA BR OVC005
      TEMPO 1612/1613 3SM -SHRA BR OVC003
     FM161300 23004KT 3SM BR VCSH SCT003 OVC007
     FM161500 27007KT 6SM BR BKN018
     FM161700 30013G22KT P6SM FEW040 FEW080
     FM170400 32006KT P6SM SKC=

USA.gov is the U.S. government's official web portal to all federal, state and local government web resources and services.